sensor_id;sensor_type;location;lat;lon;timestamp;temperature;humidity
18173;DHT22;9211;48.818;9.312;2024-01-07T00:01:10;6.90;99.90
18173;DHT22;9211;48.818;9.312;2024-01-07T00:06:10;7.20;99.90
18173;DHT22;9211;48.818;9.312;2024-01-07T00:08:37;7.20;99.90
18173;DHT22;9211;48.818;9.312;2024-01-07T00:11:04;7.10;99.90
18173;DHT22;9211;48.818;9.312;2024-01-07T00:13:31;7.20;99.90
18173;DHT22;9211;48.818;9.312;2024-01-07T00:15:58;7.20;99.90
18173;DHT22;9211;48.818;9.312;2024-01-07T00:18:25;8.00;99.90
18173;DHT22;9211;48.818;9.312;2024-01-07T00:20:52;7.20;99.90
18173;DHT22;9211;48.818;9.312;2024-01-07T00:25:48;7.10;99.90
18173;DHT22;9211;48.818;9.312;2024-01-07T00:28:15;7.00;99.90
18173;DHT22;9211;48.818;9.312;2024-01-07T00:30:42;7.10;99.90
18173;DHT22;9211;48.818;9.312;2024-01-07T00:33:09;7.10;99.90
18173;DHT22;9211;48.818;9.312;2024-01-07T00:38:04;7.00;99.90
18173;DHT22;9211;48.818;9.312;2024-01-07T00:42:59;7.00;99.90
18173;DHT22;9211;48.818;9.312;2024-01-07T00:45:26;6.90;99.90
18173;DHT22;9211;48.818;9.312;2024-01-07T00:47:55;6.90;99.90
18173;DHT22;9211;48.818;9.312;2024-01-07T00:50:22;7.00;99.90
18173;DHT22;9211;48.818;9.312;2024-01-07T00:52:50;7.10;99.90
18173;DHT22;9211;48.818;9.312;2024-01-07T00:55:17;7.10;99.90
18173;DHT22;9211;48.818;9.312;2024-01-07T00:57:45;7.30;99.90
18173;DHT22;9211;48.818;9.312;2024-01-07T01:00:13;7.30;99.90
18173;DHT22;9211;48.818;9.312;2024-01-07T01:10:03;6.90;99.90
18173;DHT22;9211;48.818;9.312;2024-01-07T01:12:29;6.90;99.90
18173;DHT22;9211;48.818;9.312;2024-01-07T01:14:57;6.70;99.90
18173;DHT22;9211;48.818;9.312;2024-01-07T01:17:26;6.90;99.90
18173;DHT22;9211;48.818;9.312;2024-01-07T01:19:53;6.80;99.90
18173;DHT22;9211;48.818;9.312;2024-01-07T01:24:47;7.10;99.90
18173;DHT22;9211;48.818;9.312;2024-01-07T01:27:14;7.00;99.90
18173;DHT22;9211;48.818;9.312;2024-01-07T01:29:41;7.30;99.90
18173;DHT22;9211;48.818;9.312;2024-01-07T01:32:09;7.20;99.90
18173;DHT22;9211;48.818;9.312;2024-01-07T01:34:39;7.10;99.90
18173;DHT22;9211;48.818;9.312;2024-01-07T01:37:08;7.40;99.90
18173;DHT22;9211;48.818;9.312;2024-01-07T01:39:35;7.30;99.90
18173;DHT22;9211;48.818;9.312;2024-01-07T01:42:02;7.20;99.90
18173;DHT22;9211;48.818;9.312;2024-01-07T01:46:57;7.00;99.90
18173;DHT22;9211;48.818;9.312;2024-01-07T01:49:27;6.90;99.90
18173;DHT22;9211;48.818;9.312;2024-01-07T01:51:55;7.10;99.90
18173;DHT22;9211;48.818;9.312;2024-01-07T01:54:22;7.00;99.90
18173;DHT22;9211;48.818;9.312;2024-01-07T01:56:52;6.90;99.90
18173;DHT22;9211;48.818;9.312;2024-01-07T01:59:20;6.90;99.90
18173;DHT22;9211;48.818;9.312;2024-01-07T02:01:47;7.00;99.90
18173;DHT22;9211;48.818;9.312;2024-01-07T02:04:15;7.00;99.90
18173;DHT22;9211;48.818;9.312;2024-01-07T02:06:45;7.20;99.90
18173;DHT22;9211;48.818;9.312;2024-01-07T02:09:12;7.00;99.90
18173;DHT22;9211;48.818;9.312;2024-01-07T02:11:39;7.20;99.90
18173;DHT22;9211;48.818;9.312;2024-01-07T02:14:06;7.20;99.90
18173;DHT22;9211;48.818;9.312;2024-01-07T02:19:00;7.20;99.90
18173;DHT22;9211;48.818;9.312;2024-01-07T02:21:27;7.10;99.90
18173;DHT22;9211;48.818;9.312;2024-01-07T02:23:55;6.90;99.90
18173;DHT22;9211;48.818;9.312;2024-01-07T02:26:24;7.20;99.90
18173;DHT22;9211;48.818;9.312;2024-01-07T02:31:18;7.10;99.90
18173;DHT22;9211;48.818;9.312;2024-01-07T02:33:45;7.00;99.90
18173;DHT22;9211;48.818;9.312;2024-01-07T02:36:12;7.00;99.90
18173;DHT22;9211;48.818;9.312;2024-01-07T02:38:39;7.00;99.90
18173;DHT22;9211;48.818;9.312;2024-01-07T02:41:06;7.00;99.90
18173;DHT22;9211;48.818;9.312;2024-01-07T02:43:34;7.20;99.90
18173;DHT22;9211;48.818;9.312;2024-01-07T02:46:01;7.20;99.90
18173;DHT22;9211;48.818;9.312;2024-01-07T02:48:28;7.20;99.90
18173;DHT22;9211;48.818;9.312;2024-01-07T02:53:26;7.20;99.90
18173;DHT22;9211;48.818;9.312;2024-01-07T02:55:54;7.00;99.90
18173;DHT22;9211;48.818;9.312;2024-01-07T02:58:20;7.10;99.90
18173;DHT22;9211;48.818;9.312;2024-01-07T03:05:53;7.00;99.90
18173;DHT22;9211;48.818;9.312;2024-01-07T03:08:20;7.10;99.90
18173;DHT22;9211;48.818;9.312;2024-01-07T03:10:47;7.20;99.90
18173;DHT22;9211;48.818;9.312;2024-01-07T03:13:14;7.30;99.90
18173;DHT22;9211;48.818;9.312;2024-01-07T03:15:41;7.30;99.90
18173;DHT22;9211;48.818;9.312;2024-01-07T03:18:08;7.20;99.90
18173;DHT22;9211;48.818;9.312;2024-01-07T03:23:04;6.80;99.90
18173;DHT22;9211;48.818;9.312;2024-01-07T03:25:31;6.90;99.90
18173;DHT22;9211;48.818;9.312;2024-01-07T03:27:58;7.10;99.90
18173;DHT22;9211;48.818;9.312;2024-01-07T03:30:25;7.00;99.90
18173;DHT22;9211;48.818;9.312;2024-01-07T03:32:52;6.90;99.90
18173;DHT22;9211;48.818;9.312;2024-01-07T03:37:48;6.90;99.90
18173;DHT22;9211;48.818;9.312;2024-01-07T03:40:15;6.70;99.90
18173;DHT22;9211;48.818;9.312;2024-01-07T03:42:42;6.80;99.90
18173;DHT22;9211;48.818;9.312;2024-01-07T03:45:09;6.90;99.90
18173;DHT22;9211;48.818;9.312;2024-01-07T03:50:04;6.70;99.90
18173;DHT22;9211;48.818;9.312;2024-01-07T03:52:32;6.80;99.90
18173;DHT22;9211;48.818;9.312;2024-01-07T03:55:03;6.70;99.90
18173;DHT22;9211;48.818;9.312;2024-01-07T03:57:30;6.60;99.90
18173;DHT22;9211;48.818;9.312;2024-01-07T03:59:59;6.90;99.90
18173;DHT22;9211;48.818;9.312;2024-01-07T04:02:25;6.80;99.90
18173;DHT22;9211;48.818;9.312;2024-01-07T04:04:52;6.60;99.90
18173;DHT22;9211;48.818;9.312;2024-01-07T04:07:19;6.60;99.90
18173;DHT22;9211;48.818;9.312;2024-01-07T04:09:46;6.80;99.90
18173;DHT22;9211;48.818;9.312;2024-01-07T04:12:14;6.90;99.90
18173;DHT22;9211;48.818;9.312;2024-01-07T04:14:43;6.80;99.90
18173;DHT22;9211;48.818;9.312;2024-01-07T04:17:10;6.80;99.90
18173;DHT22;9211;48.818;9.312;2024-01-07T04:19:37;6.70;99.90
18173;DHT22;9211;48.818;9.312;2024-01-07T04:22:04;6.60;99.90
18173;DHT22;9211;48.818;9.312;2024-01-07T04:24:31;6.50;99.90
18173;DHT22;9211;48.818;9.312;2024-01-07T04:26:58;6.60;99.90
18173;DHT22;9211;48.818;9.312;2024-01-07T04:29:26;7.00;99.90
18173;DHT22;9211;48.818;9.312;2024-01-07T04:31:53;6.80;99.90
18173;DHT22;9211;48.818;9.312;2024-01-07T04:34:20;6.80;99.90
18173;DHT22;9211;48.818;9.312;2024-01-07T04:36:48;6.70;99.90
18173;DHT22;9211;48.818;9.312;2024-01-07T04:39:15;6.70;99.90
18173;DHT22;9211;48.818;9.312;2024-01-07T04:41:42;6.80;99.90
18173;DHT22;9211;48.818;9.312;2024-01-07T04:44:09;6.80;99.90
18173;DHT22;9211;48.818;9.312;2024-01-07T04:46:38;6.90;99.90
18173;DHT22;9211;48.818;9.312;2024-01-07T04:49:05;6.70;99.90
18173;DHT22;9211;48.818;9.312;2024-01-07T04:51:33;6.60;99.90
18173;DHT22;9211;48.818;9.312;2024-01-07T04:54:02;6.60;99.90
18173;DHT22;9211;48.818;9.312;2024-01-07T04:56:29;6.50;99.90
18173;DHT22;9211;48.818;9.312;2024-01-07T04:58:55;6.50;99.90
18173;DHT22;9211;48.818;9.312;2024-01-07T05:01:22;6.50;99.90
18173;DHT22;9211;48.818;9.312;2024-01-07T05:03:51;6.50;99.90
18173;DHT22;9211;48.818;9.312;2024-01-07T05:06:18;6.60;99.90
18173;DHT22;9211;48.818;9.312;2024-01-07T05:08:45;6.50;99.90
18173;DHT22;9211;48.818;9.312;2024-01-07T05:11:12;6.50;99.90
18173;DHT22;9211;48.818;9.312;2024-01-07T05:13:38;6.60;99.90
18173;DHT22;9211;48.818;9.312;2024-01-07T05:16:06;6.50;99.90
18173;DHT22;9211;48.818;9.312;2024-01-07T05:18:33;6.60;99.90
18173;DHT22;9211;48.818;9.312;2024-01-07T05:21:01;6.60;99.90
18173;DHT22;9211;48.818;9.312;2024-01-07T05:23:28;6.90;99.90
18173;DHT22;9211;48.818;9.312;2024-01-07T05:25:55;6.80;99.90
18173;DHT22;9211;48.818;9.312;2024-01-07T05:28:22;6.90;99.90
18173;DHT22;9211;48.818;9.312;2024-01-07T05:30:49;6.90;99.90
18173;DHT22;9211;48.818;9.312;2024-01-07T05:33:16;6.90;99.90
18173;DHT22;9211;48.818;9.312;2024-01-07T05:35:43;6.80;99.90
18173;DHT22;9211;48.818;9.312;2024-01-07T05:38:11;6.80;99.90
18173;DHT22;9211;48.818;9.312;2024-01-07T05:40:38;6.90;99.90
18173;DHT22;9211;48.818;9.312;2024-01-07T05:43:05;6.80;99.90
18173;DHT22;9211;48.818;9.312;2024-01-07T05:45:32;6.80;99.90
18173;DHT22;9211;48.818;9.312;2024-01-07T05:47:59;6.80;99.90
18173;DHT22;9211;48.818;9.312;2024-01-07T05:50:26;6.80;99.90
18173;DHT22;9211;48.818;9.312;2024-01-07T05:52:53;6.70;99.90
18173;DHT22;9211;48.818;9.312;2024-01-07T05:55:21;6.60;99.90
18173;DHT22;9211;48.818;9.312;2024-01-07T05:57:48;6.70;99.90
18173;DHT22;9211;48.818;9.312;2024-01-07T06:00:16;6.60;99.90
18173;DHT22;9211;48.818;9.312;2024-01-07T06:02:43;6.80;99.90
18173;DHT22;9211;48.818;9.312;2024-01-07T06:05:10;6.40;99.90
18173;DHT22;9211;48.818;9.312;2024-01-07T06:07:37;6.30;99.90
18173;DHT22;9211;48.818;9.312;2024-01-07T06:10:04;6.30;99.90
18173;DHT22;9211;48.818;9.312;2024-01-07T06:12:33;6.50;99.90
18173;DHT22;9211;48.818;9.312;2024-01-07T06:15:00;6.50;99.90
18173;DHT22;9211;48.818;9.312;2024-01-07T06:17:27;6.40;99.90
18173;DHT22;9211;48.818;9.312;2024-01-07T06:19:54;6.50;99.90
18173;DHT22;9211;48.818;9.312;2024-01-07T06:22:21;6.50;99.90
18173;DHT22;9211;48.818;9.312;2024-01-07T06:24:48;6.60;99.90
18173;DHT22;9211;48.818;9.312;2024-01-07T06:27:14;6.50;99.90
18173;DHT22;9211;48.818;9.312;2024-01-07T06:29:43;6.60;99.90
18173;DHT22;9211;48.818;9.312;2024-01-07T06:32:10;6.50;99.90
18173;DHT22;9211;48.818;9.312;2024-01-07T06:34:36;6.40;99.90
18173;DHT22;9211;48.818;9.312;2024-01-07T06:37:03;6.60;99.90
18173;DHT22;9211;48.818;9.312;2024-01-07T06:39:30;6.50;99.90
18173;DHT22;9211;48.818;9.312;2024-01-07T06:42:00;6.60;99.90
18173;DHT22;9211;48.818;9.312;2024-01-07T06:44:27;6.70;99.90
18173;DHT22;9211;48.818;9.312;2024-01-07T06:46:55;6.60;99.90
18173;DHT22;9211;48.818;9.312;2024-01-07T06:49:22;6.70;99.90
18173;DHT22;9211;48.818;9.312;2024-01-07T06:51:49;6.60;99.90
18173;DHT22;9211;48.818;9.312;2024-01-07T06:54:15;6.60;99.90
18173;DHT22;9211;48.818;9.312;2024-01-07T06:56:42;6.70;99.90
18173;DHT22;9211;48.818;9.312;2024-01-07T06:59:11;6.70;99.90
18173;DHT22;9211;48.818;9.312;2024-01-07T07:01:38;6.60;99.90
18173;DHT22;9211;48.818;9.312;2024-01-07T07:04:06;6.80;99.90
18173;DHT22;9211;48.818;9.312;2024-01-07T07:06:33;6.70;99.90
18173;DHT22;9211;48.818;9.312;2024-01-07T07:09:00;6.70;99.90
18173;DHT22;9211;48.818;9.312;2024-01-07T07:11:27;6.80;99.90
18173;DHT22;9211;48.818;9.312;2024-01-07T07:13:54;6.80;99.90
18173;DHT22;9211;48.818;9.312;2024-01-07T07:16:21;6.80;99.90
18173;DHT22;9211;48.818;9.312;2024-01-07T07:18:48;6.70;99.90
18173;DHT22;9211;48.818;9.312;2024-01-07T07:21:16;6.70;99.90
18173;DHT22;9211;48.818;9.312;2024-01-07T07:23:43;6.70;99.90
18173;DHT22;9211;48.818;9.312;2024-01-07T07:26:10;6.70;99.90
18173;DHT22;9211;48.818;9.312;2024-01-07T07:28:37;6.70;99.90
18173;DHT22;9211;48.818;9.312;2024-01-07T07:31:04;6.70;99.90
18173;DHT22;9211;48.818;9.312;2024-01-07T07:33:30;6.70;99.90
18173;DHT22;9211;48.818;9.312;2024-01-07T07:35:57;6.80;99.90
18173;DHT22;9211;48.818;9.312;2024-01-07T07:38:26;6.80;99.90
18173;DHT22;9211;48.818;9.312;2024-01-07T07:40:52;6.80;99.90
18173;DHT22;9211;48.818;9.312;2024-01-07T07:43:20;3.90;99.90
18173;DHT22;9211;48.818;9.312;2024-01-07T07:45:47;6.80;99.90
18173;DHT22;9211;48.818;9.312;2024-01-07T07:48:14;6.80;99.90
18173;DHT22;9211;48.818;9.312;2024-01-07T07:50:42;6.80;99.90
18173;DHT22;9211;48.818;9.312;2024-01-07T07:53:09;6.80;99.90
18173;DHT22;9211;48.818;9.312;2024-01-07T07:55:37;6.70;99.90
18173;DHT22;9211;48.818;9.312;2024-01-07T07:58:04;6.80;99.90
18173;DHT22;9211;48.818;9.312;2024-01-07T08:00:31;6.70;99.90
18173;DHT22;9211;48.818;9.312;2024-01-07T08:02:58;6.70;99.90
18173;DHT22;9211;48.818;9.312;2024-01-07T08:05:25;6.60;99.90
18173;DHT22;9211;48.818;9.312;2024-01-07T08:07:52;6.60;99.90
18173;DHT22;9211;48.818;9.312;2024-01-07T08:10:19;6.70;99.90
18173;DHT22;9211;48.818;9.312;2024-01-07T08:12:48;6.70;99.90
18173;DHT22;9211;48.818;9.312;2024-01-07T08:15:16;6.50;99.90
18173;DHT22;9211;48.818;9.312;2024-01-07T08:17:42;6.50;99.90
18173;DHT22;9211;48.818;9.312;2024-01-07T08:20:11;6.50;99.90
18173;DHT22;9211;48.818;9.312;2024-01-07T08:22:38;6.20;99.90
18173;DHT22;9211;48.818;9.312;2024-01-07T08:25:05;6.30;99.90
18173;DHT22;9211;48.818;9.312;2024-01-07T08:27:32;6.40;99.90
18173;DHT22;9211;48.818;9.312;2024-01-07T08:30:02;6.60;99.90
18173;DHT22;9211;48.818;9.312;2024-01-07T08:32:29;6.50;99.90
18173;DHT22;9211;48.818;9.312;2024-01-07T08:34:56;6.50;99.90
18173;DHT22;9211;48.818;9.312;2024-01-07T08:37:23;6.40;99.90
18173;DHT22;9211;48.818;9.312;2024-01-07T08:39:50;6.40;99.90
18173;DHT22;9211;48.818;9.312;2024-01-07T08:42:17;6.40;99.90
18173;DHT22;9211;48.818;9.312;2024-01-07T08:44:44;6.40;99.90
18173;DHT22;9211;48.818;9.312;2024-01-07T08:47:14;6.40;99.90
18173;DHT22;9211;48.818;9.312;2024-01-07T08:49:41;6.40;99.90
18173;DHT22;9211;48.818;9.312;2024-01-07T08:52:09;6.40;99.90
18173;DHT22;9211;48.818;9.312;2024-01-07T08:54:36;6.50;99.90
18173;DHT22;9211;48.818;9.312;2024-01-07T08:57:03;6.50;99.90
18173;DHT22;9211;48.818;9.312;2024-01-07T08:59:29;6.20;99.90
18173;DHT22;9211;48.818;9.312;2024-01-07T09:01:56;6.40;99.90
18173;DHT22;9211;48.818;9.312;2024-01-07T09:04:25;6.30;99.90
18173;DHT22;9211;48.818;9.312;2024-01-07T09:06:51;6.20;99.90
18173;DHT22;9211;48.818;9.312;2024-01-07T09:09:18;6.50;99.90
18173;DHT22;9211;48.818;9.312;2024-01-07T09:11:46;6.40;99.90
18173;DHT22;9211;48.818;9.312;2024-01-07T09:14:13;6.30;99.90
18173;DHT22;9211;48.818;9.312;2024-01-07T09:16:40;6.40;99.90
18173;DHT22;9211;48.818;9.312;2024-01-07T09:19:08;6.20;99.90
18173;DHT22;9211;48.818;9.312;2024-01-07T09:21:36;6.40;99.90
18173;DHT22;9211;48.818;9.312;2024-01-07T09:24:03;6.50;99.90
18173;DHT22;9211;48.818;9.312;2024-01-07T09:26:30;6.40;99.90
18173;DHT22;9211;48.818;9.312;2024-01-07T09:28:57;6.20;99.90
18173;DHT22;9211;48.818;9.312;2024-01-07T09:31:24;6.30;99.90
18173;DHT22;9211;48.818;9.312;2024-01-07T09:33:51;6.40;99.90
18173;DHT22;9211;48.818;9.312;2024-01-07T09:36:18;6.30;99.90
18173;DHT22;9211;48.818;9.312;2024-01-07T09:38:46;6.30;99.90
18173;DHT22;9211;48.818;9.312;2024-01-07T09:41:13;6.00;99.90
18173;DHT22;9211;48.818;9.312;2024-01-07T09:43:40;6.10;99.90
18173;DHT22;9211;48.818;9.312;2024-01-07T09:46:07;6.40;99.90
18173;DHT22;9211;48.818;9.312;2024-01-07T09:48:34;7.10;99.90
18173;DHT22;9211;48.818;9.312;2024-01-07T09:51:01;6.40;99.90
18173;DHT22;9211;48.818;9.312;2024-01-07T09:53:31;6.50;99.90
18173;DHT22;9211;48.818;9.312;2024-01-07T09:56:07;6.30;99.90
18173;DHT22;9211;48.818;9.312;2024-01-07T09:58:37;6.20;99.90
18173;DHT22;9211;48.818;9.312;2024-01-07T10:01:04;6.10;99.90
18173;DHT22;9211;48.818;9.312;2024-01-07T10:03:32;6.20;99.90
18173;DHT22;9211;48.818;9.312;2024-01-07T10:05:58;6.30;99.90
18173;DHT22;9211;48.818;9.312;2024-01-07T10:08:25;6.40;99.90
18173;DHT22;9211;48.818;9.312;2024-01-07T10:10:52;6.20;99.90
18173;DHT22;9211;48.818;9.312;2024-01-07T10:13:22;6.20;99.90
18173;DHT22;9211;48.818;9.312;2024-01-07T10:15:49;6.00;99.90
18173;DHT22;9211;48.818;9.312;2024-01-07T10:18:16;6.20;99.90
18173;DHT22;9211;48.818;9.312;2024-01-07T10:20:43;6.20;99.90
18173;DHT22;9211;48.818;9.312;2024-01-07T10:23:10;6.10;99.90
18173;DHT22;9211;48.818;9.312;2024-01-07T10:25:37;7.00;99.90
18173;DHT22;9211;48.818;9.312;2024-01-07T10:28:04;6.00;99.90
18173;DHT22;9211;48.818;9.312;2024-01-07T10:30:33;6.10;99.90
18173;DHT22;9211;48.818;9.312;2024-01-07T10:33:00;9.10;99.90
18173;DHT22;9211;48.818;9.312;2024-01-07T10:35:32;5.90;99.90
18173;DHT22;9211;48.818;9.312;2024-01-07T10:37:59;5.80;99.90
18173;DHT22;9211;48.818;9.312;2024-01-07T10:40:27;5.90;99.90
18173;DHT22;9211;48.818;9.312;2024-01-07T10:42:55;6.20;99.90
18173;DHT22;9211;48.818;9.312;2024-01-07T10:45:22;6.00;99.90
18173;DHT22;9211;48.818;9.312;2024-01-07T10:47:55;6.00;99.90
18173;DHT22;9211;48.818;9.312;2024-01-07T10:50:26;6.00;99.90
18173;DHT22;9211;48.818;9.312;2024-01-07T10:52:58;5.90;99.90
18173;DHT22;9211;48.818;9.312;2024-01-07T10:55:34;5.80;99.90
18173;DHT22;9211;48.818;9.312;2024-01-07T10:58:03;5.80;99.90
18173;DHT22;9211;48.818;9.312;2024-01-07T11:00:31;5.80;99.90
18173;DHT22;9211;48.818;9.312;2024-01-07T11:03:07;4.50;99.90
18173;DHT22;9211;48.818;9.312;2024-01-07T11:05:40;5.80;99.90
18173;DHT22;9211;48.818;9.312;2024-01-07T11:08:15;6.10;99.90
18173;DHT22;9211;48.818;9.312;2024-01-07T11:10:48;6.00;99.90
18173;DHT22;9211;48.818;9.312;2024-01-07T11:13:33;5.90;99.90
18173;DHT22;9211;48.818;9.312;2024-01-07T11:16:01;5.90;99.90
18173;DHT22;9211;48.818;9.312;2024-01-07T11:18:31;7.30;99.90
18173;DHT22;9211;48.818;9.312;2024-01-07T11:21:00;5.90;99.90
18173;DHT22;9211;48.818;9.312;2024-01-07T11:23:29;5.90;99.90
18173;DHT22;9211;48.818;9.312;2024-01-07T11:25:58;6.50;99.90
18173;DHT22;9211;48.818;9.312;2024-01-07T11:28:45;6.00;99.90
18173;DHT22;9211;48.818;9.312;2024-01-07T11:31:12;5.90;99.90
18173;DHT22;9211;48.818;9.312;2024-01-07T11:33:43;4.10;99.90
18173;DHT22;9211;48.818;9.312;2024-01-07T11:36:11;6.00;99.90
18173;DHT22;9211;48.818;9.312;2024-01-07T11:38:42;6.10;99.90
18173;DHT22;9211;48.818;9.312;2024-01-07T11:41:10;5.90;99.90
18173;DHT22;9211;48.818;9.312;2024-01-07T11:43:38;5.80;99.90
18173;DHT22;9211;48.818;9.312;2024-01-07T11:46:04;5.70;99.90
18173;DHT22;9211;48.818;9.312;2024-01-07T11:48:31;5.70;99.90
18173;DHT22;9211;48.818;9.312;2024-01-07T11:51:00;5.60;99.90
18173;DHT22;9211;48.818;9.312;2024-01-07T11:53:27;5.70;99.90
18173;DHT22;9211;48.818;9.312;2024-01-07T11:55:54;5.70;99.90
18173;DHT22;9211;48.818;9.312;2024-01-07T11:58:21;5.60;99.90
18173;DHT22;9211;48.818;9.312;2024-01-07T12:00:48;5.60;99.90
18173;DHT22;9211;48.818;9.312;2024-01-07T12:03:16;5.70;99.90
18173;DHT22;9211;48.818;9.312;2024-01-07T12:05:42;5.70;99.90
18173;DHT22;9211;48.818;9.312;2024-01-07T12:08:11;5.40;99.90
18173;DHT22;9211;48.818;9.312;2024-01-07T12:10:38;5.50;99.90
18173;DHT22;9211;48.818;9.312;2024-01-07T12:13:05;5.60;99.90
18173;DHT22;9211;48.818;9.312;2024-01-07T12:15:32;5.40;99.90
18173;DHT22;9211;48.818;9.312;2024-01-07T12:18:00;5.40;99.90
18173;DHT22;9211;48.818;9.312;2024-01-07T12:20:28;5.80;99.90
18173;DHT22;9211;48.818;9.312;2024-01-07T12:23:04;5.70;99.90
18173;DHT22;9211;48.818;9.312;2024-01-07T12:25:33;5.80;99.90
18173;DHT22;9211;48.818;9.312;2024-01-07T12:28:00;5.50;99.90
18173;DHT22;9211;48.818;9.312;2024-01-07T12:30:27;5.60;99.90
18173;DHT22;9211;48.818;9.312;2024-01-07T12:32:56;5.70;99.90
18173;DHT22;9211;48.818;9.312;2024-01-07T12:35:25;5.50;99.90
18173;DHT22;9211;48.818;9.312;2024-01-07T12:37:53;5.40;99.90
18173;DHT22;9211;48.818;9.312;2024-01-07T12:40:21;5.40;99.90
18173;DHT22;9211;48.818;9.312;2024-01-07T12:42:51;5.80;99.90
18173;DHT22;9211;48.818;9.312;2024-01-07T12:45:18;5.40;99.90
18173;DHT22;9211;48.818;9.312;2024-01-07T12:47:45;5.30;99.90
18173;DHT22;9211;48.818;9.312;2024-01-07T12:50:13;5.20;99.90
18173;DHT22;9211;48.818;9.312;2024-01-07T12:52:41;5.30;99.90
18173;DHT22;9211;48.818;9.312;2024-01-07T12:55:08;5.20;99.90
18173;DHT22;9211;48.818;9.312;2024-01-07T12:57:35;5.60;99.90
18173;DHT22;9211;48.818;9.312;2024-01-07T13:00:05;5.40;99.90
18173;DHT22;9211;48.818;9.312;2024-01-07T13:02:33;5.30;99.90
18173;DHT22;9211;48.818;9.312;2024-01-07T13:05:01;5.20;99.90
18173;DHT22;9211;48.818;9.312;2024-01-07T13:07:28;5.10;99.90
18173;DHT22;9211;48.818;9.312;2024-01-07T13:09:55;9.40;99.90
18173;DHT22;9211;48.818;9.312;2024-01-07T13:12:22;5.20;99.90
18173;DHT22;9211;48.818;9.312;2024-01-07T13:14:49;5.20;99.90
18173;DHT22;9211;48.818;9.312;2024-01-07T13:17:18;5.20;99.90
18173;DHT22;9211;48.818;9.312;2024-01-07T13:19:45;5.30;99.90
18173;DHT22;9211;48.818;9.312;2024-01-07T13:22:12;5.20;99.90
18173;DHT22;9211;48.818;9.312;2024-01-07T13:24:40;5.30;99.90
18173;DHT22;9211;48.818;9.312;2024-01-07T13:27:07;5.70;99.90
18173;DHT22;9211;48.818;9.312;2024-01-07T13:29:34;5.20;99.90
18173;DHT22;9211;48.818;9.312;2024-01-07T13:32:01;5.20;99.90
18173;DHT22;9211;48.818;9.312;2024-01-07T13:34:30;5.10;99.90
18173;DHT22;9211;48.818;9.312;2024-01-07T13:39:24;5.10;99.90
18173;DHT22;9211;48.818;9.312;2024-01-07T13:41:51;5.10;99.90
18173;DHT22;9211;48.818;9.312;2024-01-07T13:44:19;5.00;99.90
18173;DHT22;9211;48.818;9.312;2024-01-07T13:46:46;5.00;99.90
18173;DHT22;9211;48.818;9.312;2024-01-07T13:49:13;4.90;99.90
18173;DHT22;9211;48.818;9.312;2024-01-07T13:51:42;4.70;99.90
18173;DHT22;9211;48.818;9.312;2024-01-07T13:54:09;5.50;99.90
18173;DHT22;9211;48.818;9.312;2024-01-07T13:56:38;4.80;99.90
18173;DHT22;9211;48.818;9.312;2024-01-07T13:59:08;4.90;99.90
18173;DHT22;9211;48.818;9.312;2024-01-07T14:01:35;4.90;99.90
18173;DHT22;9211;48.818;9.312;2024-01-07T14:04:02;5.00;99.90
18173;DHT22;9211;48.818;9.312;2024-01-07T14:06:29;4.60;99.90
18173;DHT22;9211;48.818;9.312;2024-01-07T14:08:58;4.60;99.90
18173;DHT22;9211;48.818;9.312;2024-01-07T14:11:25;4.60;99.90
18173;DHT22;9211;48.818;9.312;2024-01-07T14:13:53;5.30;99.90
18173;DHT22;9211;48.818;9.312;2024-01-07T14:16:20;5.10;99.90
18173;DHT22;9211;48.818;9.312;2024-01-07T14:18:47;4.50;99.90
18173;DHT22;9211;48.818;9.312;2024-01-07T14:21:14;4.50;99.90
18173;DHT22;9211;48.818;9.312;2024-01-07T14:23:41;4.30;99.90
18173;DHT22;9211;48.818;9.312;2024-01-07T14:28:37;4.50;99.90
18173;DHT22;9211;48.818;9.312;2024-01-07T14:31:04;4.60;99.90
18173;DHT22;9211;48.818;9.312;2024-01-07T14:33:31;4.50;99.90
18173;DHT22;9211;48.818;9.312;2024-01-07T14:35:58;4.60;99.90
18173;DHT22;9211;48.818;9.312;2024-01-07T14:38:26;4.30;99.90
18173;DHT22;9211;48.818;9.312;2024-01-07T14:40:53;4.50;99.90
18173;DHT22;9211;48.818;9.312;2024-01-07T14:43:21;4.50;99.90
18173;DHT22;9211;48.818;9.312;2024-01-07T14:45:48;4.40;99.90
18173;DHT22;9211;48.818;9.312;2024-01-07T14:48:15;4.40;99.90
18173;DHT22;9211;48.818;9.312;2024-01-07T14:50:42;4.30;99.90
18173;DHT22;9211;48.818;9.312;2024-01-07T14:53:13;4.20;99.90
18173;DHT22;9211;48.818;9.312;2024-01-07T14:55:40;4.70;99.90
18173;DHT22;9211;48.818;9.312;2024-01-07T14:58:07;3.90;99.90
18173;DHT22;9211;48.818;9.312;2024-01-07T15:00:35;4.00;99.90
18173;DHT22;9211;48.818;9.312;2024-01-07T15:03:03;4.30;99.90
18173;DHT22;9211;48.818;9.312;2024-01-07T15:05:30;4.20;99.90
18173;DHT22;9211;48.818;9.312;2024-01-07T15:07:57;4.30;99.90
18173;DHT22;9211;48.818;9.312;2024-01-07T15:10:23;4.20;99.90
18173;DHT22;9211;48.818;9.312;2024-01-07T15:12:50;4.00;99.90
18173;DHT22;9211;48.818;9.312;2024-01-07T15:15:17;3.90;99.90
18173;DHT22;9211;48.818;9.312;2024-01-07T15:17:47;4.00;99.90
18173;DHT22;9211;48.818;9.312;2024-01-07T15:20:14;4.30;99.90
18173;DHT22;9211;48.818;9.312;2024-01-07T15:22:42;4.10;99.90
18173;DHT22;9211;48.818;9.312;2024-01-07T15:25:09;4.20;99.90
18173;DHT22;9211;48.818;9.312;2024-01-07T15:27:36;4.10;99.90
18173;DHT22;9211;48.818;9.312;2024-01-07T15:30:04;3.70;99.90
18173;DHT22;9211;48.818;9.312;2024-01-07T15:32:32;4.00;99.90
18173;DHT22;9211;48.818;9.312;2024-01-07T15:37:30;3.80;99.90
18173;DHT22;9211;48.818;9.312;2024-01-07T15:39:57;3.90;99.90
18173;DHT22;9211;48.818;9.312;2024-01-07T15:42:28;4.00;99.90
18173;DHT22;9211;48.818;9.312;2024-01-07T15:44:55;3.80;99.90
18173;DHT22;9211;48.818;9.312;2024-01-07T15:47:22;3.80;99.90
18173;DHT22;9211;48.818;9.312;2024-01-07T15:49:49;3.80;99.90
18173;DHT22;9211;48.818;9.312;2024-01-07T15:52:18;3.70;99.90
18173;DHT22;9211;48.818;9.312;2024-01-07T15:54:45;3.70;99.90
18173;DHT22;9211;48.818;9.312;2024-01-07T15:57:12;3.70;99.90
18173;DHT22;9211;48.818;9.312;2024-01-07T15:59:42;4.10;99.90
18173;DHT22;9211;48.818;9.312;2024-01-07T16:02:09;3.30;99.90
18173;DHT22;9211;48.818;9.312;2024-01-07T16:04:36;3.20;99.90
18173;DHT22;9211;48.818;9.312;2024-01-07T16:07:06;4.40;99.90
18173;DHT22;9211;48.818;9.312;2024-01-07T16:09:34;3.40;99.90
18173;DHT22;9211;48.818;9.312;2024-01-07T16:12:02;3.40;99.90
18173;DHT22;9211;48.818;9.312;2024-01-07T16:14:29;3.50;99.90
18173;DHT22;9211;48.818;9.312;2024-01-07T16:19:27;3.40;99.90
18173;DHT22;9211;48.818;9.312;2024-01-07T16:21:55;3.50;99.90
18173;DHT22;9211;48.818;9.312;2024-01-07T16:24:24;3.70;99.90
18173;DHT22;9211;48.818;9.312;2024-01-07T16:26:53;3.80;99.90
18173;DHT22;9211;48.818;9.312;2024-01-07T16:29:20;3.30;99.90
18173;DHT22;9211;48.818;9.312;2024-01-07T16:31:47;3.40;99.90
18173;DHT22;9211;48.818;9.312;2024-01-07T16:34:14;4.40;99.90
18173;DHT22;9211;48.818;9.312;2024-01-07T16:36:42;3.40;99.90
18173;DHT22;9211;48.818;9.312;2024-01-07T16:39:09;3.30;99.90
18173;DHT22;9211;48.818;9.312;2024-01-07T16:41:36;3.40;99.90
18173;DHT22;9211;48.818;9.312;2024-01-07T16:44:05;3.40;99.90
18173;DHT22;9211;48.818;9.312;2024-01-07T16:46:34;3.00;99.90
18173;DHT22;9211;48.818;9.312;2024-01-07T16:49:02;3.10;99.90
18173;DHT22;9211;48.818;9.312;2024-01-07T16:51:29;3.10;99.90
18173;DHT22;9211;48.818;9.312;2024-01-07T16:53:56;3.00;99.90
18173;DHT22;9211;48.818;9.312;2024-01-07T16:56:23;3.20;99.90